Time;durP1;ratioP1;P1;durP2;ratioP2;P2;SDS_P1;SDS_P2;PMS_P1;PMS_P2;Temp;Humidity;BMP_temperature;BMP_pressure;BME280_temperature;BME280_humidity;BME280_pressure;Samples;Min_cycle;Max_cycle;Signal;HPM_P1;HPM_P2
2023/03/05 00:01:15;;;;;;;20.05;18.50;;;;;;;;;;5059278;28;20269;-84
2023/03/05 00:03:42;;;;;;;20.17;18.85;;;;;;;;;;5059633;28;20208;-83
2023/03/05 00:06:10;;;;;;;20.25;18.75;;;;;;;;;;5059395;28;20270;-83
2023/03/05 00:08:37;;;;;;;19.58;18.38;;;;;;;;;;5059324;28;20253;-83
2023/03/05 00:11:06;;;;;;;20.75;18.90;;;;;;;;;;5059153;28;20225;-83
2023/03/05 00:13:34;;;;;;;20.02;18.48;;;;;;;;;;5058769;28;20192;-83
2023/03/05 00:16:03;;;;;;;21.13;19.33;;;;;;;;;;5058367;28;20311;-83
2023/03/05 00:18:30;;;;;;;21.00;19.17;;;;;;;;;;5059172;28;20234;-83
2023/03/05 00:20:57;;;;;;;20.50;19.10;;;;;;;;;;5060052;28;20247;-83
2023/03/05 00:23:24;;;;;;;21.23;19.27;;;;;;;;;;5058223;28;20230;-83
2023/03/05 00:25:51;;;;;;;20.45;18.65;;;;;;;;;;5058963;28;20232;-83
2023/03/05 00:28:18;;;;;;;20.60;18.58;;;;;;;;;;5059289;28;20209;-83
2023/03/05 00:30:46;;;;;;;20.42;18.35;;;;;;;;;;5059088;28;20235;-83
2023/03/05 00:33:14;;;;;;;20.13;18.48;;;;;;;;;;5058584;28;20222;-83
2023/03/05 00:35:41;;;;;;;20.13;18.52;;;;;;;;;;5058986;28;20224;-83
2023/03/05 00:38:08;;;;;;;21.75;19.98;;;;;;;;;;5058671;28;20212;-83
2023/03/05 00:40:36;;;;;;;21.20;19.42;;;;;;;;;;5059478;28;20208;-83
2023/03/05 00:43:03;;;;;;;19.73;18.17;;;;;;;;;;5058792;28;20211;-83
2023/03/05 00:45:31;;;;;;;18.83;17.58;;;;;;;;;;5059046;28;20322;-83
2023/03/05 00:47:59;;;;;;;19.63;18.13;;;;;;;;;;5069349;28;20208;-83
2023/03/05 00:50:26;;;;;;;20.85;19.05;;;;;;;;;;5073622;28;20244;-84
2023/03/05 00:52:54;;;;;;;21.92;20.10;;;;;;;;;;5069698;28;20218;-83
2023/03/05 00:55:21;;;;;;;21.92;19.77;;;;;;;;;;5061553;28;20244;-83
2023/03/05 00:57:48;;;;;;;19.85;18.33;;;;;;;;;;5061647;28;20193;-83
2023/03/05 01:00:15;;;;;;;20.38;18.67;;;;;;;;;;5061124;28;20200;-84
2023/03/05 01:02:42;;;;;;;19.83;18.35;;;;;;;;;;5058720;28;20221;-83
2023/03/05 01:05:13;;;;;;;19.73;18.52;;;;;;;;;;5060256;28;20660;-83
2023/03/05 01:07:40;;;;;;;19.95;18.58;;;;;;;;;;5061538;28;20226;-83
2023/03/05 01:10:08;;;;;;;19.98;18.52;;;;;;;;;;5063631;28;20254;-83
2023/03/05 01:12:35;;;;;;;19.27;18.05;;;;;;;;;;5062595;28;20205;-83
2023/03/05 01:15:02;;;;;;;20.40;18.70;;;;;;;;;;5063076;28;20199;-84
2023/03/05 01:17:29;;;;;;;19.83;18.55;;;;;;;;;;5063228;28;20211;-83
2023/03/05 01:19:56;;;;;;;20.77;19.13;;;;;;;;;;5063028;28;20203;-83
2023/03/05 01:22:24;;;;;;;21.00;18.80;;;;;;;;;;5062385;28;20510;-83
2023/03/05 01:24:51;;;;;;;19.50;18.08;;;;;;;;;;5062454;28;20239;-83
2023/03/05 01:27:18;;;;;;;19.65;17.98;;;;;;;;;;5062364;28;20200;-83
2023/03/05 01:29:45;;;;;;;20.05;18.20;;;;;;;;;;5062711;28;20224;-83
2023/03/05 01:32:12;;;;;;;20.17;18.45;;;;;;;;;;5061424;28;20234;-83
2023/03/05 01:34:40;;;;;;;19.40;17.98;;;;;;;;;;5060949;28;20208;-83
2023/03/05 01:37:07;;;;;;;19.35;17.73;;;;;;;;;;5062394;28;20585;-83
2023/03/05 01:39:36;;;;;;;20.20;18.60;;;;;;;;;;5061785;28;20196;-83
2023/03/05 01:42:03;;;;;;;19.20;17.52;;;;;;;;;;5061713;28;20212;-83
2023/03/05 01:44:30;;;;;;;19.77;18.10;;;;;;;;;;5061566;28;20292;-83
2023/03/05 01:46:57;;;;;;;19.70;17.80;;;;;;;;;;5061154;28;20576;-82
2023/03/05 01:49:26;;;;;;;18.80;17.63;;;;;;;;;;5061767;28;20241;-82
2023/03/05 01:52:02;;;;;;;19.58;17.80;;;;;;;;;;5060883;28;20224;-82
2023/03/05 01:54:32;;;;;;;19.75;18.13;;;;;;;;;;5060983;28;20204;-83
2023/03/05 01:57:02;;;;;;;19.10;17.90;;;;;;;;;;5061621;28;20234;-83
2023/03/05 01:59:29;;;;;;;19.88;18.15;;;;;;;;;;5061360;28;20219;-83
2023/03/05 02:01:57;;;;;;;22.13;18.30;;;;;;;;;;5061103;28;20271;-83
2023/03/05 02:04:27;;;;;;;18.88;17.50;;;;;;;;;;5062683;28;20205;-83
2023/03/05 02:06:54;;;;;;;20.10;18.02;;;;;;;;;;5060484;28;20233;-83
2023/03/05 02:09:22;;;;;;;19.25;17.90;;;;;;;;;;5061537;28;20266;-84
2023/03/05 02:11:49;;;;;;;19.98;18.10;;;;;;;;;;5061318;28;20637;-83
2023/03/05 02:14:19;;;;;;;18.70;17.50;;;;;;;;;;5061683;28;20532;-83
2023/03/05 02:16:46;;;;;;;19.70;17.95;;;;;;;;;;5060671;28;20663;-83
2023/03/05 02:19:13;;;;;;;18.42;17.20;;;;;;;;;;5060781;28;20206;-83
2023/03/05 02:21:42;;;;;;;20.45;18.60;;;;;;;;;;5060900;28;20196;-83
2023/03/05 02:24:11;;;;;;;23.25;18.00;;;;;;;;;;5061381;28;20258;-83
2023/03/05 02:26:38;;;;;;;19.70;18.30;;;;;;;;;;5060580;28;20310;-83
2023/03/05 02:29:07;;;;;;;19.52;17.83;;;;;;;;;;5061812;28;20734;-83
2023/03/05 02:31:34;;;;;;;19.02;17.52;;;;;;;;;;5060307;28;20278;-83
2023/03/05 02:34:01;;;;;;;19.38;17.83;;;;;;;;;;5061519;28;20668;-84
2023/03/05 02:36:28;;;;;;;19.35;17.80;;;;;;;;;;5060565;28;20276;-84
2023/03/05 02:38:57;;;;;;;20.70;19.40;;;;;;;;;;5061535;28;20205;-83
2023/03/05 02:41:25;;;;;;;19.30;17.45;;;;;;;;;;5060854;28;20200;-84
2023/03/05 02:43:52;;;;;;;18.98;17.67;;;;;;;;;;5061204;28;20208;-83
2023/03/05 02:46:19;;;;;;;18.38;17.17;;;;;;;;;;5061056;28;20632;-83
2023/03/05 02:48:46;;;;;;;19.08;17.92;;;;;;;;;;5061252;28;20204;-83
2023/03/05 02:51:13;;;;;;;18.23;17.23;;;;;;;;;;5061195;28;20213;-83
2023/03/05 02:53:40;;;;;;;18.58;17.42;;;;;;;;;;5060209;28;20549;-83
2023/03/05 02:56:08;;;;;;;20.52;18.73;;;;;;;;;;5061632;28;20230;-83
2023/03/05 02:58:35;;;;;;;19.95;17.95;;;;;;;;;;5061856;28;20200;-83
2023/03/05 03:01:02;;;;;;;18.65;17.30;;;;;;;;;;5061677;28;20201;-83
2023/03/05 03:03:30;;;;;;;19.58;17.83;;;;;;;;;;5061411;28;20266;-83
2023/03/05 03:05:57;;;;;;;19.20;18.00;;;;;;;;;;5061101;28;20220;-83
2023/03/05 03:08:24;;;;;;;19.35;18.15;;;;;;;;;;5062282;28;20194;-85
2023/03/05 03:10:51;;;;;;;18.98;17.85;;;;;;;;;;5070179;28;20216;-83
2023/03/05 03:13:19;;;;;;;20.05;18.80;;;;;;;;;;5081202;28;20199;-83
2023/03/05 03:15:46;;;;;;;19.23;18.00;;;;;;;;;;5080606;28;20232;-82
2023/03/05 03:18:13;;;;;;;19.55;17.80;;;;;;;;;;5081521;28;20188;-83
2023/03/05 03:20:40;;;;;;;19.95;18.33;;;;;;;;;;5081604;28;20199;-83
2023/03/05 03:23:07;;;;;;;20.55;18.65;;;;;;;;;;5081020;28;20229;-83
2023/03/05 03:25:35;;;;;;;20.55;18.80;;;;;;;;;;5081128;28;20224;-84
2023/03/05 03:28:02;;;;;;;19.20;17.90;;;;;;;;;;5081561;28;20229;-83
2023/03/05 03:30:30;;;;;;;17.90;16.90;;;;;;;;;;5080251;28;20219;-83
2023/03/05 03:32:58;;;;;;;18.60;17.27;;;;;;;;;;5080447;28;20276;-83
2023/03/05 03:35:25;;;;;;;19.50;18.20;;;;;;;;;;5079894;28;20224;-84
2023/03/05 03:37:52;;;;;;;19.45;18.05;;;;;;;;;;5080906;28;20628;-83
2023/03/05 03:40:19;;;;;;;18.35;16.92;;;;;;;;;;5081110;28;20261;-83
2023/03/05 03:42:46;;;;;;;19.48;18.02;;;;;;;;;;5080974;28;20229;-83
2023/03/05 03:45:14;;;;;;;19.05;17.70;;;;;;;;;;5081001;28;20211;-83
2023/03/05 03:47:42;;;;;;;18.77;17.58;;;;;;;;;;5081268;28;20203;-83
2023/03/05 03:50:10;;;;;;;18.50;17.23;;;;;;;;;;5081333;28;20200;-83
2023/03/05 03:52:37;;;;;;;18.40;17.15;;;;;;;;;;5080949;28;20666;-83
2023/03/05 03:55:04;;;;;;;18.95;17.65;;;;;;;;;;5080434;28;20209;-84
2023/03/05 03:57:32;;;;;;;18.98;17.63;;;;;;;;;;5080593;28;20264;-83
2023/03/05 03:59:59;;;;;;;18.60;17.37;;;;;;;;;;5080194;28;20260;-84
2023/03/05 04:02:26;;;;;;;19.77;18.10;;;;;;;;;;5079327;28;20497;-84
2023/03/05 04:04:55;;;;;;;17.67;16.77;;;;;;;;;;5080086;28;20607;-84
2023/03/05 04:07:22;;;;;;;18.38;17.20;;;;;;;;;;5080380;28;20203;-83
2023/03/05 04:09:49;;;;;;;19.58;18.38;;;;;;;;;;5080563;28;20199;-83
2023/03/05 04:12:17;;;;;;;18.70;17.60;;;;;;;;;;5079818;28;20273;-83
2023/03/05 04:14:44;;;;;;;19.60;18.15;;;;;;;;;;5079934;28;20281;-83
2023/03/05 04:17:12;;;;;;;19.88;18.10;;;;;;;;;;5079356;28;20695;-83
2023/03/05 04:19:39;;;;;;;17.60;16.60;;;;;;;;;;5079930;28;20307;-83
2023/03/05 04:22:07;;;;;;;19.17;17.83;;;;;;;;;;5078787;28;20200;-84
2023/03/05 04:24:34;;;;;;;19.55;18.13;;;;;;;;;;5080359;28;20199;-83
2023/03/05 04:27:01;;;;;;;18.48;17.35;;;;;;;;;;5080173;28;20227;-83
2023/03/05 04:29:28;;;;;;;18.90;17.55;;;;;;;;;;5080396;28;20204;-84
2023/03/05 04:31:55;;;;;;;18.85;17.75;;;;;;;;;;5079625;28;20228;-84
2023/03/05 04:34:22;;;;;;;18.30;17.13;;;;;;;;;;5080108;28;20663;-83
2023/03/05 04:36:49;;;;;;;21.38;19.35;;;;;;;;;;5079460;28;20281;-83
2023/03/05 04:39:19;;;;;;;18.60;17.48;;;;;;;;;;5080496;28;20214;-83
2023/03/05 04:41:46;;;;;;;19.95;18.20;;;;;;;;;;5080694;28;20545;-83
2023/03/05 04:44:13;;;;;;;18.80;17.70;;;;;;;;;;5084067;28;20234;-83
2023/03/05 04:46:40;;;;;;;19.90;18.40;;;;;;;;;;5084681;28;20216;-83
2023/03/05 04:49:07;;;;;;;19.67;17.95;;;;;;;;;;5084045;28;20199;-83
2023/03/05 04:51:34;;;;;;;17.38;16.48;;;;;;;;;;5083651;28;20219;-83
2023/03/05 04:54:01;;;;;;;19.27;18.08;;;;;;;;;;5083764;28;20655;-83
2023/03/05 04:56:30;;;;;;;18.85;17.60;;;;;;;;;;5083262;28;20223;-82
2023/03/05 04:58:57;;;;;;;18.52;17.52;;;;;;;;;;5084491;28;20242;-83
2023/03/05 05:01:24;;;;;;;18.80;17.80;;;;;;;;;;5083324;28;20244;-84
2023/03/05 05:03:51;;;;;;;21.00;18.83;;;;;;;;;;5091257;28;20196;-83
2023/03/05 05:06:18;;;;;;;18.92;17.40;;;;;;;;;;5098261;28;20226;-84
2023/03/05 05:08:45;;;;;;;17.42;16.48;;;;;;;;;;5097458;28;20203;-84
2023/03/05 05:11:14;;;;;;;18.75;17.50;;;;;;;;;;5085130;28;20217;-84
2023/03/05 05:13:42;;;;;;;19.85;18.40;;;;;;;;;;5084995;28;20200;-83
2023/03/05 05:16:09;;;;;;;17.70;16.70;;;;;;;;;;5085229;28;20266;-84
2023/03/05 05:18:36;;;;;;;19.30;18.30;;;;;;;;;;5084369;28;20276;-83
2023/03/05 05:21:07;;;;;;;18.52;17.63;;;;;;;;;;5084239;28;20421;-83
2023/03/05 05:23:34;;;;;;;19.88;17.80;;;;;;;;;;5083680;28;20210;-83
2023/03/05 05:26:02;;;;;;;19.67;17.95;;;;;;;;;;5084113;28;20231;-84
2023/03/05 05:28:29;;;;;;;19.80;18.30;;;;;;;;;;5084099;28;20205;-83
2023/03/05 05:30:58;;;;;;;18.63;17.25;;;;;;;;;;5083241;28;20199;-83
2023/03/05 05:33:25;;;;;;;19.13;17.73;;;;;;;;;;5083365;28;20201;-83
2023/03/05 05:35:52;;;;;;;17.70;16.80;;;;;;;;;;5083092;28;20227;-84
2023/03/05 05:38:19;;;;;;;19.15;17.75;;;;;;;;;;5083810;28;20424;-84
2023/03/05 05:40:46;;;;;;;19.08;17.75;;;;;;;;;;5083099;28;20274;-84
2023/03/05 05:43:13;;;;;;;17.65;16.80;;;;;;;;;;5082517;28;20192;-83
2023/03/05 05:45:40;;;;;;;19.27;18.17;;;;;;;;;;5082229;28;20563;-84
2023/03/05 05:48:09;;;;;;;18.45;17.25;;;;;;;;;;5082624;28;20203;-83
2023/03/05 05:50:37;;;;;;;19.30;17.90;;;;;;;;;;5082691;28;20265;-84
2023/03/05 05:53:04;;;;;;;17.40;16.60;;;;;;;;;;5081578;28;20219;-83
2023/03/05 05:55:31;;;;;;;18.27;17.38;;;;;;;;;;5082772;28;20276;-84
2023/03/05 05:57:58;;;;;;;20.02;18.38;;;;;;;;;;5083415;28;20207;-83
2023/03/05 06:00:25;;;;;;;18.40;17.40;;;;;;;;;;5082639;28;20195;-83
2023/03/05 06:02:52;;;;;;;18.80;17.60;;;;;;;;;;5081893;28;20200;-83
2023/03/05 06:05:21;;;;;;;19.50;18.00;;;;;;;;;;5081777;28;20227;-84
2023/03/05 06:07:48;;;;;;;19.02;17.60;;;;;;;;;;5082082;28;20208;-83
2023/03/05 06:10:15;;;;;;;20.42;18.92;;;;;;;;;;5082629;28;20208;-83
2023/03/05 06:12:42;;;;;;;19.58;18.13;;;;;;;;;;5081502;28;20227;-83
2023/03/05 06:15:09;;;;;;;18.63;17.63;;;;;;;;;;5081833;28;20257;-84
2023/03/05 06:17:36;;;;;;;19.50;18.20;;;;;;;;;;5081675;28;20659;-83
2023/03/05 06:20:04;;;;;;;20.08;18.45;;;;;;;;;;5082456;28;20199;-83
2023/03/05 06:22:32;;;;;;;18.98;17.83;;;;;;;;;;5081899;28;20204;-83
2023/03/05 06:24:59;;;;;;;20.10;18.85;;;;;;;;;;5081774;28;20270;-83
2023/03/05 06:27:26;;;;;;;20.48;18.58;;;;;;;;;;5082127;28;20613;-83
2023/03/05 06:29:55;;;;;;;18.08;17.15;;;;;;;;;;5081860;28;20211;-84
2023/03/05 06:32:22;;;;;;;18.52;17.52;;;;;;;;;;5081765;28;20583;-83
2023/03/05 06:34:50;;;;;;;19.85;18.48;;;;;;;;;;5081937;28;20260;-83
2023/03/05 06:37:17;;;;;;;19.27;18.00;;;;;;;;;;5081670;28;20238;-84
2023/03/05 06:39:45;;;;;;;19.10;18.00;;;;;;;;;;5084359;28;20606;-79
2023/03/05 06:42:12;;;;;;;18.98;17.85;;;;;;;;;;5084209;28;20226;-80
2023/03/05 06:44:39;;;;;;;20.48;19.40;;;;;;;;;;5083944;28;20203;-83
2023/03/05 06:47:07;;;;;;;20.33;18.80;;;;;;;;;;5081545;28;20223;-83
2023/03/05 06:49:34;;;;;;;18.58;17.33;;;;;;;;;;5081774;28;20212;-83
2023/03/05 06:52:01;;;;;;;19.35;18.02;;;;;;;;;;5082175;28;20245;-80
2023/03/05 06:54:28;;;;;;;19.25;18.00;;;;;;;;;;5083573;28;20235;-80
2023/03/05 06:56:56;;;;;;;19.70;18.40;;;;;;;;;;5083416;28;20676;-80
2023/03/05 06:59:23;;;;;;;20.02;18.77;;;;;;;;;;5084334;28;20264;-80
2023/03/05 07:01:50;;;;;;;20.10;18.73;;;;;;;;;;5083898;28;20199;-81
2023/03/05 07:04:18;;;;;;;20.02;18.65;;;;;;;;;;5084420;28;20211;-80
2023/03/05 07:06:45;;;;;;;21.15;19.77;;;;;;;;;;5083582;28;20285;-80
2023/03/05 07:09:14;;;;;;;19.58;18.33;;;;;;;;;;5083763;28;20203;-80
2023/03/05 07:11:41;;;;;;;19.02;18.02;;;;;;;;;;5083307;28;20225;-80
2023/03/05 07:14:09;;;;;;;19.50;18.35;;;;;;;;;;5084124;28;20211;-80
2023/03/05 07:16:36;;;;;;;20.50;19.00;;;;;;;;;;5083600;28;20228;-80
2023/03/05 07:19:05;;;;;;;19.52;18.23;;;;;;;;;;5084381;28;20245;-80
2023/03/05 07:21:33;;;;;;;20.00;18.48;;;;;;;;;;5082492;28;20665;-80
2023/03/05 07:24:01;;;;;;;19.42;18.20;;;;;;;;;;5084235;28;20208;-80
2023/03/05 07:26:29;;;;;;;18.95;17.90;;;;;;;;;;5083509;28;20223;-80
2023/03/05 07:28:56;;;;;;;22.70;20.90;;;;;;;;;;5083533;28;20522;-80
2023/03/05 07:31:25;;;;;;;28.67;25.92;;;;;;;;;;5083103;28;20195;-81
2023/03/05 07:33:53;;;;;;;21.45;19.50;;;;;;;;;;5083763;28;20207;-80
2023/03/05 07:36:20;;;;;;;31.67;28.08;;;;;;;;;;5082386;28;20227;-81
2023/03/05 07:38:47;;;;;;;18.70;17.50;;;;;;;;;;5082222;28;20203;-81
2023/03/05 07:41:18;;;;;;;18.30;17.00;;;;;;;;;;5082287;28;20203;-82
2023/03/05 07:43:45;;;;;;;18.00;17.00;;;;;;;;;;5081807;28;20191;-81
2023/03/05 07:46:14;;;;;;;16.98;16.08;;;;;;;;;;5082354;28;20223;-80
2023/03/05 07:48:42;;;;;;;18.83;17.50;;;;;;;;;;5081582;28;20264;-80
2023/03/05 07:51:11;;;;;;;19.73;18.30;;;;;;;;;;5081428;28;20192;-81
2023/03/05 07:53:38;;;;;;;18.42;17.42;;;;;;;;;;5081328;28;20219;-81
2023/03/05 07:56:05;;;;;;;17.13;16.25;;;;;;;;;;5081092;28;20226;-81
2023/03/05 07:58:32;;;;;;;18.48;17.20;;;;;;;;;;5080589;28;20264;-81
2023/03/05 08:00:59;;;;;;;18.65;17.55;;;;;;;;;;5081858;28;20196;-81
2023/03/05 08:03:26;;;;;;;18.55;17.30;;;;;;;;;;5081001;28;20199;-81
2023/03/05 08:05:54;;;;;;;19.25;17.80;;;;;;;;;;5081119;28;20215;-81
2023/03/05 08:08:21;;;;;;;17.85;16.95;;;;;;;;;;5080353;28;20211;-81
2023/03/05 08:10:48;;;;;;;19.88;18.48;;;;;;;;;;5081738;28;20203;-81
2023/03/05 08:13:15;;;;;;;18.95;17.95;;;;;;;;;;5080752;28;20269;-81
2023/03/05 08:15:42;;;;;;;18.17;17.27;;;;;;;;;;5081812;28;20276;-81
2023/03/05 08:18:09;;;;;;;17.92;17.02;;;;;;;;;;5080534;28;20199;-81
2023/03/05 08:20:36;;;;;;;18.95;18.00;;;;;;;;;;5081632;28;20596;-81
2023/03/05 08:23:05;;;;;;;17.80;16.90;;;;;;;;;;5080702;28;20208;-81
2023/03/05 08:25:32;;;;;;;17.85;17.05;;;;;;;;;;5080900;28;20257;-80
2023/03/05 08:28:00;;;;;;;17.67;16.65;;;;;;;;;;5082163;28;20203;-80
2023/03/05 08:30:27;;;;;;;18.13;17.00;;;;;;;;;;5082063;28;20207;-81
2023/03/05 08:32:54;;;;;;;17.73;16.73;;;;;;;;;;5074260;28;20620;-80
2023/03/05 08:35:21;;;;;;;17.45;16.65;;;;;;;;;;5073913;28;20212;-81
2023/03/05 08:37:49;;;;;;;17.63;16.83;;;;;;;;;;5064390;28;20255;-80
2023/03/05 08:40:18;;;;;;;17.05;16.25;;;;;;;;;;5060429;28;20261;-80
2023/03/05 08:42:45;;;;;;;19.20;17.80;;;;;;;;;;5057908;28;20220;-79
2023/03/05 08:45:12;;;;;;;18.73;17.23;;;;;;;;;;5059094;28;20208;-80
2023/03/05 08:47:39;;;;;;;17.50;16.55;;;;;;;;;;5060195;28;20251;-80
2023/03/05 08:50:07;;;;;;;17.52;16.52;;;;;;;;;;5061352;28;20258;-80
2023/03/05 08:52:33;;;;;;;19.55;18.10;;;;;;;;;;5060974;28;20273;-80
2023/03/05 08:55:01;;;;;;;18.95;17.85;;;;;;;;;;5061479;28;20222;-80
2023/03/05 08:57:29;;;;;;;18.60;17.50;;;;;;;;;;5060915;28;20622;-80
2023/03/05 08:59:56;;;;;;;18.45;17.35;;;;;;;;;;5061636;28;20212;-80
2023/03/05 09:02:23;;;;;;;18.55;17.40;;;;;;;;;;5060654;28;20204;-81
2023/03/05 09:04:50;;;;;;;19.10;17.80;;;;;;;;;;5060390;28;20250;-80
2023/03/05 09:07:17;;;;;;;18.98;17.77;;;;;;;;;;5060729;28;20651;-82
2023/03/05 09:09:44;;;;;;;19.65;18.27;;;;;;;;;;5060862;28;20267;-81
2023/03/05 09:12:12;;;;;;;18.77;17.60;;;;;;;;;;5060251;28;20221;-80
2023/03/05 09:14:40;;;;;;;18.88;17.67;;;;;;;;;;5059695;28;20211;-80
2023/03/05 09:17:08;;;;;;;18.48;17.42;;;;;;;;;;5060044;28;20537;-81
2023/03/05 09:19:35;;;;;;;20.58;18.92;;;;;;;;;;5059725;28;20677;-80
2023/03/05 09:22:02;;;;;;;18.58;17.67;;;;;;;;;;5060393;28;20200;-80
2023/03/05 09:24:29;;;;;;;18.77;17.67;;;;;;;;;;5066601;28;20226;-80
2023/03/05 09:26:58;;;;;;;18.38;17.38;;;;;;;;;;5074578;28;20224;-80
2023/03/05 09:29:25;;;;;;;17.83;17.02;;;;;;;;;;5076558;28;20192;-80
2023/03/05 09:31:53;;;;;;;17.97;17.10;;;;;;;;;;5066008;28;20197;-80
2023/03/05 09:34:21;;;;;;;18.27;17.17;;;;;;;;;;5064188;28;20495;-79
2023/03/05 09:36:48;;;;;;;18.25;17.02;;;;;;;;;;5063762;28;20224;-79
2023/03/05 09:39:15;;;;;;;19.40;18.30;;;;;;;;;;5064285;28;20252;-80
2023/03/05 09:41:57;;;;;;;18.63;17.50;;;;;;;;;;5062183;28;20454;-79
2023/03/05 09:44:28;;;;;;;17.50;16.70;;;;;;;;;;5064227;28;20205;-78
2023/03/05 09:47:01;;;;;;;18.67;17.55;;;;;;;;;;5064577;28;20229;-80
2023/03/05 09:49:32;;;;;;;21.17;19.70;;;;;;;;;;5058233;28;20687;-74
2023/03/05 09:52:02;;;;;;;18.90;17.70;;;;;;;;;;5056214;28;20192;-75
2023/03/05 09:54:33;;;;;;;17.53;16.53;;;;;;;;;;5055497;28;20491;-75
2023/03/05 09:57:03;;;;;;;18.27;17.30;;;;;;;;;;5055847;28;20475;-75
2023/03/05 09:59:34;;;;;;;20.57;19.40;;;;;;;;;;5056501;28;20487;-74
2023/03/05 10:02:04;;;;;;;34.83;27.83;;;;;;;;;;5055816;28;20527;-75
2023/03/05 10:04:39;;;;;;;19.77;18.63;;;;;;;;;;5055687;28;20204;-75
2023/03/05 10:07:08;;;;;;;17.90;17.00;;;;;;;;;;5055808;28;20232;-75
2023/03/05 10:09:43;;;;;;;18.20;17.17;;;;;;;;;;5054903;28;20664;-74
2023/03/05 10:12:15;;;;;;;19.70;18.30;;;;;;;;;;5055293;28;20440;-75
2023/03/05 10:14:42;;;;;;;19.70;18.53;;;;;;;;;;5056496;28;20502;-75
2023/03/05 10:17:33;;;;;;;20.00;19.00;;;;;;;;;;5055223;28;20531;-75
2023/03/05 10:20:16;;;;;;;19.20;17.98;;;;;;;;;;5056113;28;20456;-74
2023/03/05 10:22:50;;;;;;;19.63;18.53;;;;;;;;;;5056697;28;20670;-80
2023/03/05 10:25:20;;;;;;;19.85;18.65;;;;;;;;;;5056142;28;20456;-75
2023/03/05 10:27:49;;;;;;;20.10;19.00;;;;;;;;;;5055341;28;20208;-75
2023/03/05 10:30:26;;;;;;;19.25;18.10;;;;;;;;;;5056085;28;20262;-75
2023/03/05 10:32:56;;;;;;;20.10;18.70;;;;;;;;;;5054904;28;20676;-75
2023/03/05 10:35:34;;;;;;;20.08;18.98;;;;;;;;;;5055874;28;20437;-75
2023/03/05 10:38:09;;;;;;;20.20;19.10;;;;;;;;;;5055903;28;20190;-82
2023/03/05 10:40:40;;;;;;;19.70;18.70;;;;;;;;;;5054667;28;20954;-76
2023/03/05 10:43:13;;;;;;;19.40;18.27;;;;;;;;;;5054656;28;20894;-76
2023/03/05 10:45:41;;;;;;;20.52;19.23;;;;;;;;;;5055161;28;20959;-76
2023/03/05 10:48:13;;;;;;;20.50;19.40;;;;;;;;;;5055605;28;20714;-75
2023/03/05 10:50:43;;;;;;;20.75;19.40;;;;;;;;;;5055521;28;20448;-75
2023/03/05 10:53:15;;;;;;;19.60;18.47;;;;;;;;;;5054209;28;20268;-74
2023/03/05 10:55:42;;;;;;;19.80;18.90;;;;;;;;;;5055154;28;20530;-75
2023/03/05 10:58:11;;;;;;;19.38;18.38;;;;;;;;;;5055327;28;20427;-75
2023/03/05 11:00:38;;;;;;;19.13;18.02;;;;;;;;;;5054697;28;20298;-75
2023/03/05 11:03:07;;;;;;;21.87;19.83;;;;;;;;;;5054655;28;20204;-75
2023/03/05 11:05:40;;;;;;;20.90;19.50;;;;;;;;;;5054022;28;20860;-75
2023/03/05 11:08:22;;;;;;;20.53;19.20;;;;;;;;;;5055029;28;20755;-74
2023/03/05 11:11:02;;;;;;;21.53;20.03;;;;;;;;;;5052455;28;20922;-74
2023/03/05 11:13:29;;;;;;;20.00;18.90;;;;;;;;;;5054338;28;20475;-74
2023/03/05 11:16:00;;;;;;;19.43;18.43;;;;;;;;;;5054318;28;20461;-75
2023/03/05 11:18:30;;;;;;;19.37;18.27;;;;;;;;;;5054373;28;20789;-74
2023/03/05 11:21:07;;;;;;;20.07;18.87;;;;;;;;;;5054713;28;20820;-74
2023/03/05 11:23:34;;;;;;;19.83;18.60;;;;;;;;;;5054335;28;20463;-75
2023/03/05 11:26:04;;;;;;;21.13;19.75;;;;;;;;;;5053880;28;20494;-74
2023/03/05 11:28:33;;;;;;;20.40;19.08;;;;;;;;;;5054885;28;20189;-75
2023/03/05 11:31:02;;;;;;;19.90;18.63;;;;;;;;;;5054518;28;20200;-75
2023/03/05 11:33:29;;;;;;;20.13;19.03;;;;;;;;;;5053550;28;20221;-75
2023/03/05 11:36:11;;;;;;;21.00;19.90;;;;;;;;;;5054206;28;20434;-73
2023/03/05 11:38:45;;;;;;;20.50;19.40;;;;;;;;;;5053260;28;20942;-73
2023/03/05 11:41:14;;;;;;;20.80;19.50;;;;;;;;;;5053975;28;20442;-73
2023/03/05 11:43:41;;;;;;;20.33;19.23;;;;;;;;;;5053729;28;20414;-73
2023/03/05 11:46:11;;;;;;;22.47;20.60;;;;;;;;;;5053890;28;20468;-73
2023/03/05 11:48:39;;;;;;;20.80;19.50;;;;;;;;;;5053575;28;20484;-74
2023/03/05 11:51:08;;;;;;;19.73;18.63;;;;;;;;;;5053698;28;20429;-73
2023/03/05 11:53:36;;;;;;;19.43;18.43;;;;;;;;;;5053508;28;20532;-73
2023/03/05 11:56:06;;;;;;;20.50;19.30;;;;;;;;;;5053828;28;20534;-73
2023/03/05 11:58:36;;;;;;;20.90;19.60;;;;;;;;;;5054148;28;20757;-73
2023/03/05 12:01:04;;;;;;;20.73;19.63;;;;;;;;;;5055738;28;20525;-79
2023/03/05 12:03:32;;;;;;;19.70;18.60;;;;;;;;;;5056261;28;20453;-80
2023/03/05 12:06:02;;;;;;;21.07;19.87;;;;;;;;;;5057706;28;20220;-79
2023/03/05 12:08:31;;;;;;;21.57;20.27;;;;;;;;;;5057709;28;20394;-79
2023/03/05 12:11:00;;;;;;;20.98;19.63;;;;;;;;;;5060415;28;20467;-80
2023/03/05 12:13:29;;;;;;;20.20;19.00;;;;;;;;;;5077269;28;20588;-80
2023/03/05 12:16:09;;;;;;;21.50;20.20;;;;;;;;;;5076411;28;20483;-79
2023/03/05 12:18:43;;;;;;;21.20;20.10;;;;;;;;;;5077752;28;20406;-79
2023/03/05 12:21:16;;;;;;;20.40;19.33;;;;;;;;;;5077711;28;20419;-81
2023/03/05 12:23:47;;;;;;;20.00;18.80;;;;;;;;;;5077875;28;20446;-80
2023/03/05 12:26:14;;;;;;;21.77;20.47;;;;;;;;;;5076276;28;20531;-80
2023/03/05 12:29:00;;;;;;;21.17;19.97;;;;;;;;;;5077205;28;20428;-80
2023/03/05 12:31:37;;;;;;;20.33;19.23;;;;;;;;;;5076443;28;20781;-80
2023/03/05 12:34:19;;;;;;;20.50;19.40;;;;;;;;;;5076921;28;20450;-80
2023/03/05 12:36:46;;;;;;;21.33;20.00;;;;;;;;;;5076585;28;20466;-80
2023/03/05 12:39:37;;;;;;;21.10;19.70;;;;;;;;;;5076919;28;20461;-79
2023/03/05 12:42:29;;;;;;;21.00;19.67;;;;;;;;;;5075936;28;20819;-79
2023/03/05 12:45:11;;;;;;;21.33;20.13;;;;;;;;;;5076969;28;20416;-80
2023/03/05 12:47:40;;;;;;;21.00;19.53;;;;;;;;;;5076273;28;20439;-79
2023/03/05 12:50:29;;;;;;;20.40;19.20;;;;;;;;;;5076562;28;20430;-80
2023/03/05 12:52:59;;;;;;;21.60;19.93;;;;;;;;;;5075654;28;20456;-79
2023/03/05 12:55:27;;;;;;;21.20;19.90;;;;;;;;;;5075475;28;20529;-81
2023/03/05 12:57:57;;;;;;;21.60;20.03;;;;;;;;;;5076188;28;20426;-79
2023/03/05 13:00:27;;;;;;;20.60;19.40;;;;;;;;;;5076031;28;20444;-79
2023/03/05 13:02:57;;;;;;;20.40;19.40;;;;;;;;;;5077833;28;20500;-79
2023/03/05 13:05:26;;;;;;;20.40;19.30;;;;;;;;;;5079941;28;20429;-80
2023/03/05 13:07:53;;;;;;;20.80;19.50;;;;;;;;;;5078595;28;20462;-80
2023/03/05 13:10:26;;;;;;;21.43;20.00;;;;;;;;;;5079064;28;20434;-79
2023/03/05 13:12:54;;;;;;;20.20;19.10;;;;;;;;;;5078447;28;20813;-80
2023/03/05 13:15:23;;;;;;;20.67;19.57;;;;;;;;;;5079895;28;20535;-80
2023/03/05 13:17:54;;;;;;;21.00;19.90;;;;;;;;;;5079296;28;20440;-80
2023/03/05 13:20:25;;;;;;;22.17;20.77;;;;;;;;;;5079939;28;20442;-80
2023/03/05 13:23:03;;;;;;;22.33;21.13;;;;;;;;;;5079369;28;20444;-80
2023/03/05 13:25:31;;;;;;;21.77;20.60;;;;;;;;;;5077986;28;20446;-73
2023/03/05 13:28:02;;;;;;;21.70;20.60;;;;;;;;;;5075747;28;20275;-73
2023/03/05 13:30:29;;;;;;;23.00;21.50;;;;;;;;;;5076438;28;20816;-73
2023/03/05 13:33:01;;;;;;;22.83;21.43;;;;;;;;;;5076600;28;20451;-80
2023/03/05 13:35:29;;;;;;;21.77;20.57;;;;;;;;;;5079367;28;20497;-78
2023/03/05 13:37:56;;;;;;;24.47;22.57;;;;;;;;;;5078967;28;20424;-79
2023/03/05 13:40:24;;;;;;;22.50;21.30;;;;;;;;;;5077857;28;20436;-79
2023/03/05 13:42:54;;;;;;;22.00;20.90;;;;;;;;;;5076731;28;20450;-79
2023/03/05 13:45:23;;;;;;;22.23;20.93;;;;;;;;;;5076809;28;20754;-78
2023/03/05 13:47:52;;;;;;;22.77;21.47;;;;;;;;;;5078002;28;20515;-79
2023/03/05 13:50:23;;;;;;;22.03;20.70;;;;;;;;;;5079261;28;20445;-78
2023/03/05 13:52:50;;;;;;;21.47;20.37;;;;;;;;;;5079425;28;20507;-74
2023/03/05 13:55:17;;;;;;;20.47;19.40;;;;;;;;;;5074721;28;20474;-74
2023/03/05 13:57:46;;;;;;;20.63;19.53;;;;;;;;;;5056428;28;20789;-73
2023/03/05 14:00:28;;;;;;;21.60;20.25;;;;;;;;;;5055664;28;20448;-73
2023/03/05 14:02:56;;;;;;;21.70;20.30;;;;;;;;;;5055268;28;20194;-73
2023/03/05 14:05:23;;;;;;;20.33;19.33;;;;;;;;;;5055735;28;20521;-73
2023/03/05 14:07:51;;;;;;;21.53;20.37;;;;;;;;;;5056019;28;20420;-74
2023/03/05 14:10:29;;;;;;;21.90;20.80;;;;;;;;;;5055528;28;20460;-73
2023/03/05 14:12:56;;;;;;;24.43;22.93;;;;;;;;;;5056488;28;20448;-73
2023/03/05 14:15:24;;;;;;;22.57;21.27;;;;;;;;;;5055761;28;20510;-80
2023/03/05 14:17:53;;;;;;;22.40;21.00;;;;;;;;;;5058805;28;20567;-73
2023/03/05 14:20:26;;;;;;;21.87;20.57;;;;;;;;;;5058312;28;20550;-79
2023/03/05 14:22:54;;;;;;;21.50;20.20;;;;;;;;;;5058812;28;20449;-80
2023/03/05 14:25:28;;;;;;;21.70;20.40;;;;;;;;;;5058475;28;20474;-80